sensor_id;sensor_type;location;lat;lon;timestamp;pressure;altitude;pressure_sealevel;temperature;humidity
28701;BME280;15877;52.344;16.790;2024-02-28T00:00:56;100720.70;;;11.54;88.21
28701;BME280;15877;52.344;16.790;2024-02-28T00:03:47;100723.23;;;11.53;88.06
28701;BME280;15877;52.344;16.790;2024-02-28T00:06:20;100725.85;;;11.53;88.08
28701;BME280;15877;52.344;16.790;2024-02-28T00:08:53;100707.80;;;11.42;88.15
28701;BME280;15877;52.344;16.790;2024-02-28T00:11:25;100721.04;;;11.51;87.98
28701;BME280;15877;52.344;16.790;2024-02-28T00:13:57;100720.89;;;11.51;87.76
28701;BME280;15877;52.344;16.790;2024-02-28T00:16:30;100721.02;;;11.51;87.82
28701;BME280;15877;52.344;16.790;2024-02-28T00:19:03;100719.97;;;11.50;87.80
28701;BME280;15877;52.344;16.790;2024-02-28T00:21:35;100724.27;;;11.50;87.83
28701;BME280;15877;52.344;16.790;2024-02-28T00:24:08;100730.10;;;11.48;87.98
28701;BME280;15877;52.344;16.790;2024-02-28T00:26:41;100733.47;;;11.46;88.01
28701;BME280;15877;52.344;16.790;2024-02-28T00:29:14;100732.52;;;11.46;88.05
28701;BME280;15877;52.344;16.790;2024-02-28T00:31:46;100732.40;;;11.44;88.26
28701;BME280;15877;52.344;16.790;2024-02-28T00:34:18;100735.01;;;11.44;88.39
28701;BME280;15877;52.344;16.790;2024-02-28T00:36:50;100736.91;;;11.43;88.34
28701;BME280;15877;52.344;16.790;2024-02-28T00:39:26;100738.16;;;11.43;88.25
28701;BME280;15877;52.344;16.790;2024-02-28T00:41:58;100737.27;;;11.42;88.22
28701;BME280;15877;52.344;16.790;2024-02-28T00:44:30;100722.27;;;11.32;88.27
28701;BME280;15877;52.344;16.790;2024-02-28T00:47:03;100740.05;;;11.42;88.34
28701;BME280;15877;52.344;16.790;2024-02-28T00:49:35;100738.05;;;11.41;88.28
28701;BME280;15877;52.344;16.790;2024-02-28T00:52:07;100733.17;;;11.43;88.36
28701;BME280;15877;52.344;16.790;2024-02-28T00:54:39;100734.38;;;11.43;88.14
28701;BME280;15877;52.344;16.790;2024-02-28T00:57:11;100736.23;;;11.42;88.26
28701;BME280;15877;52.344;16.790;2024-02-28T00:59:43;100721.34;;;11.34;88.33
28701;BME280;15877;52.344;16.790;2024-02-28T01:02:15;100735.14;;;11.42;88.29
28701;BME280;15877;52.344;16.790;2024-02-28T01:04:48;100734.77;;;11.40;88.40
28701;BME280;15877;52.344;16.790;2024-02-28T01:07:20;100729.14;;;11.41;88.44
28701;BME280;15877;52.344;16.790;2024-02-28T01:09:52;100730.96;;;11.41;88.38
28701;BME280;15877;52.344;16.790;2024-02-28T01:12:24;100730.17;;;11.40;88.51
28701;BME280;15877;52.344;16.790;2024-02-28T01:14:56;100731.47;;;11.42;88.95
28701;BME280;15877;52.344;16.790;2024-02-28T01:17:28;100725.45;;;11.46;88.62
28701;BME280;15877;52.344;16.790;2024-02-28T01:20:01;100727.89;;;11.45;88.82
28701;BME280;15877;52.344;16.790;2024-02-28T01:22:34;100726.66;;;11.47;88.78
28701;BME280;15877;52.344;16.790;2024-02-28T01:25:07;100724.56;;;11.46;88.77
28701;BME280;15877;52.344;16.790;2024-02-28T01:27:39;100719.18;;;11.43;89.06
28701;BME280;15877;52.344;16.790;2024-02-28T01:30:14;100721.56;;;11.40;89.48
28701;BME280;15877;52.344;16.790;2024-02-28T01:32:46;100716.88;;;11.39;89.47
28701;BME280;15877;52.344;16.790;2024-02-28T01:35:19;100713.96;;;11.38;89.55
28701;BME280;15877;52.344;16.790;2024-02-28T01:37:51;100711.42;;;11.38;89.64
28701;BME280;15877;52.344;16.790;2024-02-28T01:40:23;100705.46;;;11.38;89.69
28701;BME280;15877;52.344;16.790;2024-02-28T01:42:55;100705.53;;;11.37;89.74
28701;BME280;15877;52.344;16.790;2024-02-28T01:45:27;100688.63;;;11.28;89.72
28701;BME280;15877;52.344;16.790;2024-02-28T01:48:00;100701.70;;;11.37;89.64
28701;BME280;15877;52.344;16.790;2024-02-28T01:50:32;100704.64;;;11.36;89.69
28701;BME280;15877;52.344;16.790;2024-02-28T01:53:04;100706.31;;;11.37;89.37
28701;BME280;15877;52.344;16.790;2024-02-28T01:55:39;100707.76;;;11.37;89.19
28701;BME280;15877;52.344;16.790;2024-02-28T01:58:12;100706.33;;;11.37;89.14
28701;BME280;15877;52.344;16.790;2024-02-28T02:00:45;100708.95;;;11.37;89.15
28701;BME280;15877;52.344;16.790;2024-02-28T02:03:17;100707.83;;;11.37;89.25
28701;BME280;15877;52.344;16.790;2024-02-28T02:05:50;100703.05;;;11.36;89.25
28701;BME280;15877;52.344;16.790;2024-02-28T02:08:22;100697.61;;;11.35;89.43
28701;BME280;15877;52.344;16.790;2024-02-28T02:10:55;100680.19;;;11.27;89.20
28701;BME280;15877;52.344;16.790;2024-02-28T02:13:27;100692.09;;;11.34;89.35
28701;BME280;15877;52.344;16.790;2024-02-28T02:15:59;100691.52;;;11.33;89.34
28701;BME280;15877;52.344;16.790;2024-02-28T02:18:32;100693.13;;;11.33;89.31
28701;BME280;15877;52.344;16.790;2024-02-28T02:21:07;100697.41;;;11.33;89.38
28701;BME280;15877;52.344;16.790;2024-02-28T02:23:41;100700.61;;;11.34;89.06
28701;BME280;15877;52.344;16.790;2024-02-28T02:26:13;100692.64;;;11.26;88.92
28701;BME280;15877;52.344;16.790;2024-02-28T02:28:45;100700.38;;;11.35;88.73
28701;BME280;15877;52.344;16.790;2024-02-28T02:31:18;100700.94;;;11.35;88.84
28701;BME280;15877;52.344;16.790;2024-02-28T02:33:50;100701.16;;;11.34;88.67
28701;BME280;15877;52.344;16.790;2024-02-28T02:36:22;100700.91;;;11.33;88.64
28701;BME280;15877;52.344;16.790;2024-02-28T02:38:54;100699.77;;;11.33;88.55
28701;BME280;15877;52.344;16.790;2024-02-28T02:41:26;100705.42;;;11.33;88.69
28701;BME280;15877;52.344;16.790;2024-02-28T02:43:59;100708.54;;;11.33;88.57
28701;BME280;15877;52.344;16.790;2024-02-28T02:46:31;100713.52;;;11.32;88.57
28701;BME280;15877;52.344;16.790;2024-02-28T02:49:03;100701.42;;;11.21;88.94
28701;BME280;15877;52.344;16.790;2024-02-28T02:51:35;100714.05;;;11.31;89.01
28701;BME280;15877;52.344;16.790;2024-02-28T02:54:08;100707.86;;;11.31;89.06
28701;BME280;15877;52.344;16.790;2024-02-28T02:56:42;100705.48;;;11.31;89.08
28701;BME280;15877;52.344;16.790;2024-02-28T02:59:14;100703.52;;;11.33;89.13
28701;BME280;15877;52.344;16.790;2024-02-28T03:01:46;100702.45;;;11.34;89.10
28701;BME280;15877;52.344;16.790;2024-02-28T03:04:18;100691.80;;;11.27;89.13
28701;BME280;15877;52.344;16.790;2024-02-28T03:06:50;100707.44;;;11.34;89.24
28701;BME280;15877;52.344;16.790;2024-02-28T03:09:23;100705.77;;;11.34;89.42
28701;BME280;15877;52.344;16.790;2024-02-28T03:11:55;100710.11;;;11.36;89.25
28701;BME280;15877;52.344;16.790;2024-02-28T03:14:27;100708.67;;;11.36;89.28
28701;BME280;15877;52.344;16.790;2024-02-28T03:16:59;100709.75;;;11.34;89.34
28701;BME280;15877;52.344;16.790;2024-02-28T03:19:32;100714.05;;;11.34;89.45
28701;BME280;15877;52.344;16.790;2024-02-28T03:22:06;100719.04;;;11.34;89.04
28701;BME280;15877;52.344;16.790;2024-02-28T03:24:38;100719.95;;;11.35;89.01
28701;BME280;15877;52.344;16.790;2024-02-28T03:27:11;100715.15;;;11.34;88.95
28701;BME280;15877;52.344;16.790;2024-02-28T03:29:43;100711.82;;;11.34;89.03
28701;BME280;15877;52.344;16.790;2024-02-28T03:32:15;100700.68;;;11.27;89.00
28701;BME280;15877;52.344;16.790;2024-02-28T03:34:47;100711.77;;;11.35;89.15
28701;BME280;15877;52.344;16.790;2024-02-28T03:37:20;100711.72;;;11.37;89.21
28701;BME280;15877;52.344;16.790;2024-02-28T03:39:52;100718.64;;;11.37;89.29
28701;BME280;15877;52.344;16.790;2024-02-28T03:42:24;100719.98;;;11.37;89.31
28701;BME280;15877;52.344;16.790;2024-02-28T03:44:56;100717.48;;;11.35;89.47
28701;BME280;15877;52.344;16.790;2024-02-28T03:47:29;100723.30;;;11.36;89.75
28701;BME280;15877;52.344;16.790;2024-02-28T03:50:01;100726.98;;;11.37;89.61
28701;BME280;15877;52.344;16.790;2024-02-28T03:52:34;100724.52;;;11.41;89.53
28701;BME280;15877;52.344;16.790;2024-02-28T03:55:08;100722.40;;;11.41;89.61
28701;BME280;15877;52.344;16.790;2024-02-28T03:57:41;100717.53;;;11.41;89.64
28701;BME280;15877;52.344;16.790;2024-02-28T04:00:16;100720.73;;;11.38;90.04
28701;BME280;15877;52.344;16.790;2024-02-28T04:02:48;100724.79;;;11.38;90.14
28701;BME280;15877;52.344;16.790;2024-02-28T04:05:20;100726.60;;;11.41;89.95
28701;BME280;15877;52.344;16.790;2024-02-28T04:07:52;100724.37;;;11.37;90.11
28701;BME280;15877;52.344;16.790;2024-02-28T04:10:24;100707.66;;;11.26;90.56
28701;BME280;15877;52.344;16.790;2024-02-28T04:12:57;100728.64;;;11.36;90.50
28701;BME280;15877;52.344;16.790;2024-02-28T04:15:30;100733.91;;;11.38;90.58
28701;BME280;15877;52.344;16.790;2024-02-28T04:18:02;100730.73;;;11.40;90.32
28701;BME280;15877;52.344;16.790;2024-02-28T04:20:35;100732.52;;;11.39;90.42
28701;BME280;15877;52.344;16.790;2024-02-28T04:23:10;100730.95;;;11.40;90.60
28701;BME280;15877;52.344;16.790;2024-02-28T04:25:43;100731.55;;;11.39;90.73
28701;BME280;15877;52.344;16.790;2024-02-28T04:28:15;100728.52;;;11.38;90.91
28701;BME280;15877;52.344;16.790;2024-02-28T04:30:47;100733.80;;;11.36;91.07
28701;BME280;15877;52.344;16.790;2024-02-28T04:33:19;100730.65;;;11.37;91.00
28701;BME280;15877;52.344;16.790;2024-02-28T04:35:52;100726.34;;;11.26;91.18
28701;BME280;15877;52.344;16.790;2024-02-28T04:38:24;100744.89;;;11.35;91.30
28701;BME280;15877;52.344;16.790;2024-02-28T04:40:56;100743.10;;;11.36;91.05
28701;BME280;15877;52.344;16.790;2024-02-28T04:43:28;100743.52;;;11.37;91.04
28701;BME280;15877;52.344;16.790;2024-02-28T04:46:01;100741.48;;;11.38;91.09
28701;BME280;15877;52.344;16.790;2024-02-28T04:48:35;100742.30;;;11.39;91.12
28701;BME280;15877;52.344;16.790;2024-02-28T04:51:07;100738.39;;;11.39;90.96
28701;BME280;15877;52.344;16.790;2024-02-28T04:53:40;100735.93;;;11.39;91.09
28701;BME280;15877;52.344;16.790;2024-02-28T04:56:12;100737.90;;;11.38;91.15
28701;BME280;15877;52.344;16.790;2024-02-28T04:58:45;100741.03;;;11.39;91.18
28701;BME280;15877;52.344;16.790;2024-02-28T05:01:19;100743.31;;;11.38;91.24
28701;BME280;15877;52.344;16.790;2024-02-28T05:03:52;100747.73;;;11.40;91.13
28701;BME280;15877;52.344;16.790;2024-02-28T05:06:24;100749.02;;;11.41;90.93
28701;BME280;15877;52.344;16.790;2024-02-28T05:08:56;100751.17;;;11.42;90.92
28701;BME280;15877;52.344;16.790;2024-02-28T05:11:29;100750.86;;;11.41;90.86
28701;BME280;15877;52.344;16.790;2024-02-28T05:14:04;100756.83;;;11.42;90.80
28701;BME280;15877;52.344;16.790;2024-02-28T05:16:36;100753.70;;;11.41;90.68
28701;BME280;15877;52.344;16.790;2024-02-28T05:19:09;100762.69;;;11.41;90.71
28701;BME280;15877;52.344;16.790;2024-02-28T05:21:44;100748.66;;;11.32;90.58
28701;BME280;15877;52.344;16.790;2024-02-28T05:24:16;100763.29;;;11.40;90.53
28701;BME280;15877;52.344;16.790;2024-02-28T05:26:49;100769.35;;;11.37;90.73
28701;BME280;15877;52.344;16.790;2024-02-28T05:29:21;100769.59;;;11.37;90.76
28701;BME280;15877;52.344;16.790;2024-02-28T05:31:53;100773.70;;;11.39;90.47
28701;BME280;15877;52.344;16.790;2024-02-28T05:34:26;100779.65;;;11.39;90.46
28701;BME280;15877;52.344;16.790;2024-02-28T05:36:58;100782.88;;;11.38;90.49
28701;BME280;15877;52.344;16.790;2024-02-28T05:39:33;100788.91;;;11.37;90.43
28701;BME280;15877;52.344;16.790;2024-02-28T05:42:06;100786.59;;;11.34;90.66
28701;BME280;15877;52.344;16.790;2024-02-28T05:44:39;100796.24;;;11.39;90.40
28701;BME280;15877;52.344;16.790;2024-02-28T05:47:11;100801.44;;;11.40;90.37
28701;BME280;15877;52.344;16.790;2024-02-28T05:49:44;100805.91;;;11.40;90.35
28701;BME280;15877;52.344;16.790;2024-02-28T05:52:20;100809.65;;;11.41;90.16
28701;BME280;15877;52.344;16.790;2024-02-28T05:54:50;100810.25;;;11.39;90.44
28701;BME280;15877;52.344;16.790;2024-02-28T05:57:25;100813.03;;;11.39;90.54
28701;BME280;15877;52.344;16.790;2024-02-28T05:59:57;100812.35;;;11.40;90.51
28701;BME280;15877;52.344;16.790;2024-02-28T06:02:41;100815.35;;;11.39;90.49
28701;BME280;15877;52.344;16.790;2024-02-28T06:05:13;100816.93;;;11.42;90.21
28701;BME280;15877;52.344;16.790;2024-02-28T06:07:45;100817.75;;;11.40;90.29
28701;BME280;15877;52.344;16.790;2024-02-28T06:10:18;100826.82;;;11.41;90.24
28701;BME280;15877;52.344;16.790;2024-02-28T06:12:53;100828.88;;;11.40;90.37
28701;BME280;15877;52.344;16.790;2024-02-28T06:15:25;100832.61;;;11.43;90.14
28701;BME280;15877;52.344;16.790;2024-02-28T06:17:58;100829.33;;;11.45;89.99
28701;BME280;15877;52.344;16.790;2024-02-28T06:20:31;100828.27;;;11.41;90.51
28701;BME280;15877;52.344;16.790;2024-02-28T06:23:04;100829.05;;;11.40;90.79
28701;BME280;15877;52.344;16.790;2024-02-28T06:25:49;100829.50;;;11.39;90.72
28701;BME280;15877;52.344;16.790;2024-02-28T06:28:23;100836.67;;;11.40;90.91
28701;BME280;15877;52.344;16.790;2024-02-28T06:30:56;100838.17;;;11.42;90.86
28701;BME280;15877;52.344;16.790;2024-02-28T06:33:28;100844.30;;;11.43;90.77
28701;BME280;15877;52.344;16.790;2024-02-28T06:36:01;100846.43;;;11.37;91.24
28701;BME280;15877;52.344;16.790;2024-02-28T06:38:33;100845.40;;;11.30;92.09
28701;BME280;15877;52.344;16.790;2024-02-28T06:41:09;100844.92;;;11.34;91.95
28701;BME280;15877;52.344;16.790;2024-02-28T06:43:42;100839.84;;;11.37;91.95
28701;BME280;15877;52.344;16.790;2024-02-28T06:46:19;100843.79;;;11.39;91.35
28701;BME280;15877;52.344;16.790;2024-02-28T06:48:52;100851.58;;;11.38;91.22
28701;BME280;15877;52.344;16.790;2024-02-28T06:51:24;100851.59;;;11.39;91.07
28701;BME280;15877;52.344;16.790;2024-02-28T06:53:56;100848.88;;;11.39;91.20
28701;BME280;15877;52.344;16.790;2024-02-28T06:56:31;100852.55;;;11.37;91.40
28701;BME280;15877;52.344;16.790;2024-02-28T06:59:03;100861.70;;;11.40;91.20
28701;BME280;15877;52.344;16.790;2024-02-28T07:01:38;100862.66;;;11.37;91.57
28701;BME280;15877;52.344;16.790;2024-02-28T07:04:10;100871.57;;;11.34;91.60
28701;BME280;15877;52.344;16.790;2024-02-28T07:06:42;100873.71;;;11.31;91.79
28701;BME280;15877;52.344;16.790;2024-02-28T07:09:14;100873.62;;;11.34;91.47
28701;BME280;15877;52.344;16.790;2024-02-28T07:11:46;100872.05;;;11.29;91.60
28701;BME280;15877;52.344;16.790;2024-02-28T07:14:19;100876.77;;;11.24;92.02
28701;BME280;15877;52.344;16.790;2024-02-28T07:16:51;100879.11;;;11.25;91.92
28701;BME280;15877;52.344;16.790;2024-02-28T07:19:24;100884.06;;;11.16;92.10
28701;BME280;15877;52.344;16.790;2024-02-28T07:21:56;100893.88;;;11.13;92.22
28701;BME280;15877;52.344;16.790;2024-02-28T07:24:28;100897.52;;;10.98;92.94
28701;BME280;15877;52.344;16.790;2024-02-28T07:27:00;100898.75;;;10.99;93.21
28701;BME280;15877;52.344;16.790;2024-02-28T07:29:32;100903.83;;;10.88;92.97
28701;BME280;15877;52.344;16.790;2024-02-28T07:32:05;100896.58;;;10.84;92.88
28701;BME280;15877;52.344;16.790;2024-02-28T07:34:37;100899.48;;;10.85;92.62
28701;BME280;15877;52.344;16.790;2024-02-28T07:37:10;100901.23;;;10.80;92.33
28701;BME280;15877;52.344;16.790;2024-02-28T07:39:43;100901.31;;;10.75;92.60
28701;BME280;15877;52.344;16.790;2024-02-28T07:42:15;100907.91;;;10.66;92.86
28701;BME280;15877;52.344;16.790;2024-02-28T07:44:48;100898.30;;;10.61;92.75
28701;BME280;15877;52.344;16.790;2024-02-28T07:47:24;100904.79;;;10.65;92.66
28701;BME280;15877;52.344;16.790;2024-02-28T07:49:56;100915.09;;;10.73;92.34
28701;BME280;15877;52.344;16.790;2024-02-28T07:52:28;100920.55;;;10.70;91.94
28701;BME280;15877;52.344;16.790;2024-02-28T07:55:00;100916.98;;;10.73;91.49
28701;BME280;15877;52.344;16.790;2024-02-28T07:57:33;100917.65;;;10.60;91.38
28701;BME280;15877;52.344;16.790;2024-02-28T08:00:07;100921.92;;;10.47;91.87
28701;BME280;15877;52.344;16.790;2024-02-28T08:02:43;100917.42;;;10.48;92.22
28701;BME280;15877;52.344;16.790;2024-02-28T08:05:15;100917.44;;;10.48;92.06
28701;BME280;15877;52.344;16.790;2024-02-28T08:07:49;100918.45;;;10.37;92.19
28701;BME280;15877;52.344;16.790;2024-02-28T08:10:22;100913.99;;;10.34;92.49
28701;BME280;15877;52.344;16.790;2024-02-28T08:12:54;100914.17;;;10.37;91.93
28701;BME280;15877;52.344;16.790;2024-02-28T08:15:26;100907.63;;;10.36;91.60
28701;BME280;15877;52.344;16.790;2024-02-28T08:17:59;100918.63;;;10.35;91.67
28701;BME280;15877;52.344;16.790;2024-02-28T08:20:31;100916.84;;;10.31;91.88
28701;BME280;15877;52.344;16.790;2024-02-28T08:23:03;100920.02;;;10.34;92.14
28701;BME280;15877;52.344;16.790;2024-02-28T08:25:36;100924.01;;;10.29;92.33
28701;BME280;15877;52.344;16.790;2024-02-28T08:28:09;100927.36;;;10.30;92.08
28701;BME280;15877;52.344;16.790;2024-02-28T08:30:41;100928.25;;;10.13;92.23
28701;BME280;15877;52.344;16.790;2024-02-28T08:33:13;100930.97;;;10.23;92.02
28701;BME280;15877;52.344;16.790;2024-02-28T08:35:47;100918.61;;;10.19;91.47
28701;BME280;15877;52.344;16.790;2024-02-28T08:38:21;100931.38;;;10.18;91.39
28701;BME280;15877;52.344;16.790;2024-02-28T08:40:54;100934.02;;;10.24;91.58
28701;BME280;15877;52.344;16.790;2024-02-28T08:43:26;100936.95;;;10.25;91.82
28701;BME280;15877;52.344;16.790;2024-02-28T08:45:58;100939.36;;;10.28;91.73
28701;BME280;15877;52.344;16.790;2024-02-28T08:48:31;100939.36;;;10.33;91.00
28701;BME280;15877;52.344;16.790;2024-02-28T08:51:04;100944.13;;;10.36;91.01
28701;BME280;15877;52.344;16.790;2024-02-28T08:53:36;100943.83;;;10.41;89.95
28701;BME280;15877;52.344;16.790;2024-02-28T08:56:08;100939.10;;;10.27;90.18
28701;BME280;15877;52.344;16.790;2024-02-28T08:58:40;100931.56;;;10.33;89.95
28701;BME280;15877;52.344;16.790;2024-02-28T09:01:15;100944.43;;;10.38;89.28
28701;BME280;15877;52.344;16.790;2024-02-28T09:03:48;100939.38;;;10.41;89.46
28701;BME280;15877;52.344;16.790;2024-02-28T09:06:20;100931.74;;;10.18;89.56
28701;BME280;15877;52.344;16.790;2024-02-28T09:08:52;100944.05;;;10.26;90.06
28701;BME280;15877;52.344;16.790;2024-02-28T09:11:24;100952.11;;;10.17;90.09
28701;BME280;15877;52.344;16.790;2024-02-28T09:13:56;100953.46;;;10.13;90.62
28701;BME280;15877;52.344;16.790;2024-02-28T09:16:29;100960.58;;;10.12;91.05
28701;BME280;15877;52.344;16.790;2024-02-28T09:19:01;100968.23;;;10.01;91.25
28701;BME280;15877;52.344;16.790;2024-02-28T09:21:33;100951.05;;;9.73;91.86
28701;BME280;15877;52.344;16.790;2024-02-28T09:24:06;100964.77;;;9.74;92.54
28701;BME280;15877;52.344;16.790;2024-02-28T09:26:41;100960.59;;;9.81;92.45
28701;BME280;15877;52.344;16.790;2024-02-28T09:29:13;100968.22;;;9.86;92.15
28701;BME280;15877;52.344;16.790;2024-02-28T09:31:45;100964.05;;;9.85;91.49
28701;BME280;15877;52.344;16.790;2024-02-28T09:34:17;100968.09;;;9.68;92.25
28701;BME280;15877;52.344;16.790;2024-02-28T09:36:50;100969.60;;;9.80;92.22
28701;BME280;15877;52.344;16.790;2024-02-28T09:39:22;100970.16;;;9.80;91.92
28701;BME280;15877;52.344;16.790;2024-02-28T09:41:54;100972.54;;;9.76;92.09
28701;BME280;15877;52.344;16.790;2024-02-28T09:44:27;100975.73;;;9.76;91.96
28701;BME280;15877;52.344;16.790;2024-02-28T09:47:00;100979.13;;;9.78;91.91
28701;BME280;15877;52.344;16.790;2024-02-28T09:49:35;100979.89;;;9.85;91.64
28701;BME280;15877;52.344;16.790;2024-02-28T09:52:08;100985.20;;;9.89;91.64
28701;BME280;15877;52.344;16.790;2024-02-28T09:54:41;100984.71;;;9.94;91.13
28701;BME280;15877;52.344;16.790;2024-02-28T09:57:15;100989.75;;;9.85;90.74
28701;BME280;15877;52.344;16.790;2024-02-28T09:59:47;101002.21;;;9.79;91.21
28701;BME280;15877;52.344;16.790;2024-02-28T10:02:26;100997.59;;;9.82;91.07
28701;BME280;15877;52.344;16.790;2024-02-28T10:05:00;100997.88;;;9.94;90.00
28701;BME280;15877;52.344;16.790;2024-02-28T10:07:34;100990.73;;;9.77;90.31
28701;BME280;15877;52.344;16.790;2024-02-28T10:10:08;101004.79;;;9.92;90.34
28701;BME280;15877;52.344;16.790;2024-02-28T10:12:45;101015.45;;;9.81;90.72
28701;BME280;15877;52.344;16.790;2024-02-28T10:15:18;101017.95;;;9.78;90.39
28701;BME280;15877;52.344;16.790;2024-02-28T10:17:51;101021.46;;;9.76;90.37
28701;BME280;15877;52.344;16.790;2024-02-28T10:20:24;101025.11;;;9.76;90.42
28701;BME280;15877;52.344;16.790;2024-02-28T10:22:56;101020.66;;;9.87;89.83
28701;BME280;15877;52.344;16.790;2024-02-28T10:25:28;101017.84;;;9.93;89.90
28701;BME280;15877;52.344;16.790;2024-02-28T10:28:09;101020.75;;;9.83;89.98
28701;BME280;15877;52.344;16.790;2024-02-28T10:30:42;101024.19;;;9.91;89.45
28701;BME280;15877;52.344;16.790;2024-02-28T10:33:16;101013.13;;;9.90;88.81
28701;BME280;15877;52.344;16.790;2024-02-28T10:35:51;101033.20;;;9.83;88.65
28701;BME280;15877;52.344;16.790;2024-02-28T10:38:24;101037.59;;;9.81;89.89
28701;BME280;15877;52.344;16.790;2024-02-28T10:41:00;101038.70;;;9.93;88.90
28701;BME280;15877;52.344;16.790;2024-02-28T10:43:32;101038.20;;;9.91;88.99
28701;BME280;15877;52.344;16.790;2024-02-28T10:46:07;101044.11;;;9.96;88.49
28701;BME280;15877;52.344;16.790;2024-02-28T10:49:00;101049.79;;;9.95;88.46
28701;BME280;15877;52.344;16.790;2024-02-28T10:51:35;101048.55;;;9.99;87.93
28701;BME280;15877;52.344;16.790;2024-02-28T10:54:12;101054.89;;;9.96;87.77
28701;BME280;15877;52.344;16.790;2024-02-28T10:56:45;101049.37;;;9.99;87.93
28701;BME280;15877;52.344;16.790;2024-02-28T10:59:18;101051.42;;;9.94;87.65
28701;BME280;15877;52.344;16.790;2024-02-28T11:01:53;101035.98;;;9.88;87.50
28701;BME280;15877;52.344;16.790;2024-02-28T11:04:25;101052.83;;;9.89;87.88
28701;BME280;15877;52.344;16.790;2024-02-28T11:06:58;101048.21;;;9.77;88.86
28701;BME280;15877;52.344;16.790;2024-02-28T11:09:32;101052.32;;;9.83;88.34
28701;BME280;15877;52.344;16.790;2024-02-28T11:12:07;101051.94;;;9.74;88.56
28701;BME280;15877;52.344;16.790;2024-02-28T11:15:03;101059.05;;;9.72;88.82
28701;BME280;15877;52.344;16.790;2024-02-28T11:17:39;101042.95;;;9.60;88.87
28701;BME280;15877;52.344;16.790;2024-02-28T11:20:16;101061.34;;;9.69;89.23
28701;BME280;15877;52.344;16.790;2024-02-28T11:22:48;101066.78;;;9.69;88.88
28701;BME280;15877;52.344;16.790;2024-02-28T11:25:20;101063.11;;;9.61;88.81
28701;BME280;15877;52.344;16.790;2024-02-28T11:27:53;101065.59;;;9.58;89.18
28701;BME280;15877;52.344;16.790;2024-02-28T11:30:26;101064.37;;;9.54;89.52
28701;BME280;15877;52.344;16.790;2024-02-28T11:32:58;101067.70;;;9.59;89.04
28701;BME280;15877;52.344;16.790;2024-02-28T11:35:36;101072.62;;;9.67;88.72
28701;BME280;15877;52.344;16.790;2024-02-28T11:38:09;101072.61;;;9.74;88.39
28701;BME280;15877;52.344;16.790;2024-02-28T11:40:50;101074.56;;;9.65;88.23
28701;BME280;15877;52.344;16.790;2024-02-28T11:43:22;101075.48;;;9.66;88.06
28701;BME280;15877;52.344;16.790;2024-02-28T11:45:57;101077.59;;;9.69;87.98
28701;BME280;15877;52.344;16.790;2024-02-28T11:48:29;101078.05;;;9.62;88.79
28701;BME280;15877;52.344;16.790;2024-02-28T11:51:02;101077.91;;;9.60;88.45
28701;BME280;15877;52.344;16.790;2024-02-28T11:53:34;101077.41;;;9.71;88.26
28701;BME280;15877;52.344;16.790;2024-02-28T11:56:07;101078.98;;;9.78;87.77
28701;BME280;15877;52.344;16.790;2024-02-28T11:58:50;101083.67;;;9.73;87.52
28701;BME280;15877;52.344;16.790;2024-02-28T12:01:41;101088.79;;;9.72;86.80
28701;BME280;15877;52.344;16.790;2024-02-28T12:04:16;101093.02;;;9.73;86.24
28701;BME280;15877;52.344;16.790;2024-02-28T12:06:48;101087.24;;;9.67;87.14
28701;BME280;15877;52.344;16.790;2024-02-28T12:09:20;101086.27;;;9.79;86.42
28701;BME280;15877;52.344;16.790;2024-02-28T12:12:03;101086.61;;;9.77;86.11
28701;BME280;15877;52.344;16.790;2024-02-28T12:14:38;101088.53;;;9.72;86.66
28701;BME280;15877;52.344;16.790;2024-02-28T12:17:14;101077.69;;;9.52;86.48
28701;BME280;15877;52.344;16.790;2024-02-28T12:19:47;101056.73;;;9.36;87.16
28701;BME280;15877;52.344;16.790;2024-02-28T12:22:23;101094.67;;;9.68;86.90
28701;BME280;15877;52.344;16.790;2024-02-28T12:24:55;101097.80;;;9.65;87.16
28701;BME280;15877;52.344;16.790;2024-02-28T12:27:27;101098.36;;;9.72;86.44
28701;BME280;15877;52.344;16.790;2024-02-28T12:29:59;101103.13;;;9.77;86.47
28701;BME280;15877;52.344;16.790;2024-02-28T12:32:32;101088.74;;;9.66;86.43
28701;BME280;15877;52.344;16.790;2024-02-28T12:35:05;101102.66;;;9.81;86.48
28701;BME280;15877;52.344;16.790;2024-02-28T12:37:38;101102.40;;;9.87;85.82
28701;BME280;15877;52.344;16.790;2024-02-28T12:40:11;101097.92;;;9.83;85.50
28701;BME280;15877;52.344;16.790;2024-02-28T12:42:45;101099.34;;;9.77;86.33
28701;BME280;15877;52.344;16.790;2024-02-28T12:45:17;101103.90;;;9.82;86.13
28701;BME280;15877;52.344;16.790;2024-02-28T12:47:50;101109.70;;;9.78;86.40
28701;BME280;15877;52.344;16.790;2024-02-28T12:50:22;101081.83;;;9.59;86.10
28701;BME280;15877;52.344;16.790;2024-02-28T12:52:55;101115.76;;;9.68;85.95
28701;BME280;15877;52.344;16.790;2024-02-28T12:55:27;101117.56;;;9.63;86.24
28701;BME280;15877;52.344;16.790;2024-02-28T12:57:59;101123.94;;;9.69;86.23
28701;BME280;15877;52.344;16.790;2024-02-28T13:00:35;101117.33;;;9.55;87.05
28701;BME280;15877;52.344;16.790;2024-02-28T13:03:08;101116.40;;;9.64;86.08
28701;BME280;15877;52.344;16.790;2024-02-28T13:05:41;101116.41;;;9.58;86.20
28701;BME280;15877;52.344;16.790;2024-02-28T13:08:13;101110.16;;;9.52;86.33
28701;BME280;15877;52.344;16.790;2024-02-28T13:10:46;101114.30;;;9.65;85.81
28701;BME280;15877;52.344;16.790;2024-02-28T13:13:18;101114.30;;;9.56;86.10